Last 24 Hour KALB Observations

Last 24 hours of surface weather observations from the Albany County Airport. Observations taken by the National Weather Service.


		
KALB 162051Z 31015G24KT 10SM FEW025 BKN047 BKN065 04/M07 A2994 RMK AO2
 SNB1958E12 SLP142 PRESENT WX VCSH P0000 60000 T00391067 53025=
KALB 162151Z 30018G29KT 10SM -SN FEW021 BKN044 BKN055 02/M07 A3000 RMK AO2 PK
 WND 31029/2144 SNB03 PRESRR SLP163 P0000 T00221072=
KALB 162251Z 30016G28KT 10SM FEW022 SCT043 BKN055 01/M09 A3004 RMK AO2 PK WND
 32028/2247 SNE02 SLP176 P0000 T00111089=
KALB 162351Z 31012KT 10SM SCT044 00/M09 A3009 RMK AO2 PK WND 31028/2255 SLP192
 60000 T00001094 10056 20000 51048=
KALB 170051Z 33018G26KT 10SM BKN044 BKN140 M01/M11 A3013 RMK AO2 PK WND
 32026/0049 SLP205 T10061111=
KALB 170151Z 33019G22KT 10SM SCT049 SCT140 M02/M12 A3016 RMK AO2 PK WND
 32027/0139 SLP216 T10171117=
KALB 170251Z 30015G24KT 10SM -SN BKN043 M02/M12 A3019 RMK AO2 PK WND 32028/0210
 SNB44 SLP227 PCPN VRY LGT P0000 60000 T10221117 51035=
KALB 170351Z 32016G27KT 10SM SCT039 BKN100 M03/M14 A3025 RMK AO2 PK WND
 33027/0346 SNE08 SLP248 P0000 T10331139=
KALB 170451Z 31015KT 10SM FEW035 BKN100 M04/M14 A3028 RMK AO2 SLP258 T10391139
 400561039=
KALB 170551Z 30014G24KT 10SM SCT100 M06/M14 A3031 RMK AO2 PK WND 29027/0532
 SLP268 60000 T10561139 10000 21056 51040=
KALB 170651Z 30018G28KT 10SM FEW040 M07/M15 A3036 RMK AO2 PK WND 30028/0604
 SLP285 T10721150=
KALB 170751Z 30015G27KT 10SM FEW040 M08/M16 A3042 RMK AO2 PK WND 31029/0654
 SNB16E43 SLP303 P0000 T10781161=
KALB 170851Z 30015G29KT 10SM FEW040 M09/M18 A3047 RMK AO2 PK WND 29031/0811
 SLP321 T10891178 51052=
KALB 170951Z 30015G21KT 10SM FEW040 M10/M18 A3051 RMK AO2 PK WND 31026/0924
 SLP335 T11001178=
KALB 171051Z 30011G19KT 10SM CLR M11/M19 A3056 RMK AO2 SLP353 T11061189=
KALB 171151Z 29015KT 10SM FEW035 M12/M20 A3061 RMK AO2 SLP370 T11171200 11056
 21117 53048=
KALB 171251Z 31015G24KT 10SM FEW034 M12/M21 A3065 RMK AO2 SLP383 T11221206=
KALB 171351Z 29015G22KT 10SM FEW031 M12/M21 A3068 RMK AO2 SLP396 T11171211=
KALB 171451Z 30012G21KT 10SM FEW031 M11/M21 A3072 RMK AO2 SLP407 T11111211
 51035=
KALB 171551Z 29014KT 10SM CLR M10/M21 A3073 RMK AO2 SLP410 T11001211=
KALB 171651Z 30013KT 10SM CLR M09/M21 A3072 RMK AO2 SLP408 T10941211=
KALB 171751Z 29013KT 10SM CLR M08/M21 A3070 RMK AO2 SLP401 T10831211 11083
 21122 58005=
KALB 171851Z 30012KT 10SM CLR M07/M21 A3069 RMK AO2 SLP398 T10721206=
KALB 171951Z 29015G20KT 10SM CLR M08/M21 A3069 RMK AO2 SLP398 T10781211=
KALB 172051Z 32009KT 10SM FEW250 M08/M21 A3069 RMK AO2 SLP399 T10831206 55002=